createdAt,value
2022-10-27T00:01:34.945Z,12.38
2022-10-27T00:04:09.311Z,12.35
2022-10-27T00:06:42.675Z,12.31
2022-10-27T00:09:16.138Z,12.28
2022-10-27T00:11:50.271Z,12.26
2022-10-27T00:14:23.998Z,12.22
2022-10-27T00:16:58.619Z,12.18
2022-10-27T00:19:32.748Z,12.16
2022-10-27T00:22:06.124Z,12.13
2022-10-27T00:24:39.519Z,12.10
2022-10-27T00:27:13.035Z,12.07
2022-10-27T00:29:47.658Z,12.02
2022-10-27T00:32:21.820Z,11.99
2022-10-27T00:34:55.673Z,11.96
2022-10-27T00:37:29.794Z,11.93
2022-10-27T00:40:03.390Z,11.92
2022-10-27T00:42:36.998Z,11.88
2022-10-27T00:45:13.423Z,11.86
2022-10-27T00:47:47.894Z,11.83
2022-10-27T00:50:25.289Z,11.81
2022-10-27T00:53:01.687Z,11.78
2022-10-27T00:55:39.529Z,11.74
2022-10-27T00:58:17.541Z,11.71
2022-10-27T01:00:51.252Z,11.68
2022-10-27T01:03:26.296Z,11.65
2022-10-27T01:06:01.287Z,11.62
2022-10-27T01:08:34.965Z,11.59
2022-10-27T01:11:09.135Z,11.56
2022-10-27T01:13:43.443Z,11.53
2022-10-27T01:16:28.922Z,11.50
2022-10-27T01:19:16.238Z,11.48
2022-10-27T01:22:12.437Z,11.47
2022-10-27T01:25:21.420Z,11.46
2022-10-27T01:28:19.857Z,11.44
2022-10-27T01:31:06.159Z,11.43
2022-10-27T01:33:44.982Z,11.42
2022-10-27T01:36:25.288Z,11.42
2022-10-27T01:39:05.901Z,11.41
2022-10-27T01:41:45.220Z,11.40
2022-10-27T01:44:24.305Z,11.40
2022-10-27T01:46:58.726Z,11.41
2022-10-27T01:49:38.222Z,11.42
2022-10-27T01:52:42.955Z,11.43
2022-10-27T01:55:25.252Z,11.44
2022-10-27T01:58:33.288Z,11.47
2022-10-27T02:01:19.916Z,11.48
2022-10-27T02:04:00.942Z,11.49
2022-10-27T02:06:43.141Z,11.49
2022-10-27T02:09:22.474Z,11.51
2022-10-27T02:11:59.199Z,11.53
2022-10-27T02:14:32.749Z,11.54
2022-10-27T02:17:08.308Z,11.54
2022-10-27T02:19:44.097Z,11.55
2022-10-27T02:22:18.935Z,11.57
2022-10-27T02:24:54.260Z,11.60
2022-10-27T02:27:35.090Z,11.60
2022-10-27T02:30:11.293Z,11.62
2022-10-27T02:32:46.187Z,11.64
2022-10-27T02:35:20.711Z,11.67
2022-10-27T02:37:54.809Z,11.69
2022-10-27T02:40:28.744Z,11.70
2022-10-27T02:43:02.633Z,11.73
2022-10-27T02:45:36.021Z,11.75
2022-10-27T02:48:09.630Z,11.77
2022-10-27T02:50:43.538Z,11.78
2022-10-27T02:56:13.630Z,11.79
2022-10-27T02:58:47.156Z,11.80
2022-10-27T03:01:21.043Z,11.80
2022-10-27T03:03:54.503Z,11.81
2022-10-27T03:06:27.837Z,11.81
2022-10-27T03:09:02.062Z,11.81
2022-10-27T03:11:39.579Z,11.81
2022-10-27T03:14:16.230Z,11.80
2022-10-27T03:16:49.599Z,11.82
2022-10-27T03:19:23.325Z,11.80
2022-10-27T03:21:57.536Z,11.80
2022-10-27T03:24:30.882Z,11.80
2022-10-27T03:27:04.941Z,11.79
2022-10-27T03:29:38.440Z,11.80
2022-10-27T03:32:11.927Z,11.81
2022-10-27T03:34:45.523Z,11.81
2022-10-27T03:37:18.815Z,11.81
2022-10-27T03:39:52.327Z,11.79
2022-10-27T03:42:25.720Z,11.81
2022-10-27T03:44:59.627Z,11.80
2022-10-27T03:47:33.836Z,11.80
2022-10-27T03:50:09.186Z,11.79
2022-10-27T03:52:43.697Z,11.80
2022-10-27T03:55:17.497Z,11.79
2022-10-27T03:57:52.569Z,11.77
2022-10-27T04:00:28.965Z,11.74
2022-10-27T04:03:02.814Z,11.71
2022-10-27T04:05:36.851Z,11.68
2022-10-27T04:08:11.291Z,11.67
2022-10-27T04:10:44.844Z,11.66
2022-10-27T04:13:25.499Z,11.64
2022-10-27T04:16:06.396Z,11.65
2022-10-27T04:18:39.983Z,11.63
2022-10-27T04:21:13.594Z,11.63
2022-10-27T04:23:47.541Z,11.62
2022-10-27T04:26:21.091Z,11.60
2022-10-27T04:28:54.799Z,11.57
2022-10-27T04:31:28.196Z,11.56
2022-10-27T04:34:01.797Z,11.54
2022-10-27T04:36:35.301Z,11.51
2022-10-27T04:39:08.917Z,11.48
2022-10-27T04:41:42.477Z,11.43
2022-10-27T04:44:15.967Z,11.38
2022-10-27T04:46:49.365Z,11.36
2022-10-27T04:49:22.728Z,11.30
2022-10-27T04:51:56.318Z,11.26
2022-10-27T04:54:30.651Z,11.23
2022-10-27T04:57:04.269Z,11.19
2022-10-27T04:59:37.535Z,11.14
2022-10-27T05:02:12.312Z,11.12
2022-10-27T05:04:45.552Z,11.05
2022-10-27T05:07:18.748Z,10.99
2022-10-27T05:09:52.925Z,10.95
2022-10-27T05:12:26.630Z,10.91
2022-10-27T05:15:00.296Z,10.89
2022-10-27T05:17:34.301Z,10.84
2022-10-27T05:20:09.528Z,10.82
2022-10-27T05:22:42.936Z,10.81
2022-10-27T05:25:17.904Z,10.80
2022-10-27T05:27:52.168Z,10.78
2022-10-27T05:30:26.396Z,10.78
2022-10-27T05:33:00.109Z,10.78
2022-10-27T05:35:34.362Z,10.77
2022-10-27T05:38:07.917Z,10.78
2022-10-27T05:40:41.302Z,10.76
2022-10-27T05:43:15.214Z,10.78
2022-10-27T05:45:48.826Z,10.77
2022-10-27T05:48:22.315Z,10.79
2022-10-27T05:50:59.094Z,10.79
2022-10-27T05:53:32.489Z,10.79
2022-10-27T05:56:06.240Z,10.78
2022-10-27T05:58:39.687Z,10.78
2022-10-27T06:01:13.954Z,10.76
2022-10-27T06:03:47.139Z,10.75
2022-10-27T06:06:20.887Z,10.76
2022-10-27T06:08:54.443Z,10.77
2022-10-27T06:11:27.879Z,10.79
2022-10-27T06:14:01.278Z,10.79
2022-10-27T06:16:34.878Z,10.81
2022-10-27T06:19:08.881Z,10.84
2022-10-27T06:21:42.401Z,10.85
2022-10-27T06:24:16.090Z,10.88
2022-10-27T06:26:53.116Z,10.92
2022-10-27T06:29:29.952Z,10.96
2022-10-27T06:32:03.443Z,11.01
2022-10-27T06:34:36.943Z,11.06
2022-10-27T06:37:10.710Z,11.10
2022-10-27T06:39:44.448Z,11.15
2022-10-27T06:42:18.114Z,11.20
2022-10-27T06:44:57.381Z,11.24
2022-10-27T06:47:30.926Z,11.27
2022-10-27T06:50:04.382Z,11.36
2022-10-27T06:52:41.055Z,11.42
2022-10-27T06:55:14.735Z,11.51
2022-10-27T06:57:48.632Z,11.62
2022-10-27T07:00:25.022Z,11.72
2022-10-27T07:02:58.292Z,11.84
2022-10-27T07:05:32.370Z,11.96
2022-10-27T07:08:06.121Z,12.09
2022-10-27T07:10:40.128Z,12.22
2022-10-27T07:13:13.637Z,12.37
2022-10-27T07:15:47.839Z,12.51
2022-10-27T07:18:21.207Z,12.66
2022-10-27T07:20:55.038Z,12.83
2022-10-27T07:23:28.435Z,12.99
2022-10-27T07:26:02.351Z,13.15
2022-10-27T07:28:36.258Z,13.31
2022-10-27T07:31:09.796Z,13.47
2022-10-27T07:33:43.390Z,13.63
2022-10-27T07:36:17.563Z,13.81
2022-10-27T07:38:50.583Z,13.98
2022-10-27T07:41:24.360Z,14.15
2022-10-27T07:43:57.880Z,14.30
2022-10-27T07:46:32.307Z,14.47
2022-10-27T07:49:06.500Z,14.65
2022-10-27T07:51:39.888Z,14.82
2022-10-27T07:54:13.817Z,14.98
2022-10-27T07:56:49.225Z,15.15
2022-10-27T07:59:22.557Z,15.33
2022-10-27T08:01:56.539Z,15.49
2022-10-27T08:04:30.415Z,15.65
2022-10-27T08:07:04.537Z,15.81
2022-10-27T08:09:38.007Z,16.00
2022-10-27T08:12:12.118Z,16.15
2022-10-27T08:14:45.854Z,16.32
2022-10-27T08:17:19.784Z,16.48
2022-10-27T08:19:53.358Z,16.63
2022-10-27T08:22:27.065Z,16.78
2022-10-27T08:25:02.732Z,16.93
2022-10-27T08:27:38.698Z,17.09
2022-10-27T08:30:13.967Z,17.24
2022-10-27T08:32:47.715Z,17.37
2022-10-27T08:35:21.315Z,17.50
2022-10-27T08:38:01.673Z,17.63
2022-10-27T08:40:45.287Z,17.79
2022-10-27T08:43:35.889Z,17.94
2022-10-27T08:46:15.477Z,18.09
2022-10-27T08:48:50.781Z,18.22
2022-10-27T08:51:27.927Z,18.37
2022-10-27T08:54:03.062Z,18.50
2022-10-27T08:56:40.764Z,18.62
2022-10-27T08:59:20.736Z,18.75
2022-10-27T09:02:03.978Z,18.88
2022-10-27T09:05:07.789Z,19.03
2022-10-27T09:07:50.535Z,19.18
2022-10-27T09:10:43.932Z,19.33
2022-10-27T09:13:31.079Z,19.47
2022-10-27T09:16:08.231Z,19.61
2022-10-27T09:18:46.732Z,19.73
2022-10-27T09:21:23.881Z,19.83
2022-10-27T09:24:00.197Z,19.95
2022-10-27T09:26:36.403Z,20.01
2022-10-27T09:29:17.461Z,20.11
2022-10-27T09:32:01.713Z,20.23
2022-10-27T09:34:41.725Z,20.34
2022-10-27T09:37:18.181Z,20.43
2022-10-27T09:39:53.827Z,20.50
2022-10-27T09:42:30.478Z,20.59
2022-10-27T09:45:14.054Z,20.72
2022-10-27T09:47:51.354Z,20.81
2022-10-27T09:50:28.335Z,20.88
2022-10-27T09:53:01.843Z,20.99
2022-10-27T09:55:52.865Z,21.04
2022-10-27T09:58:26.453Z,21.14
2022-10-27T10:01:05.654Z,21.21
2022-10-27T10:03:39.728Z,21.28
2022-10-27T10:06:30.070Z,21.37
2022-10-27T10:09:23.049Z,21.42
2022-10-27T10:12:23.121Z,21.47
2022-10-27T10:15:21.094Z,21.56
2022-10-27T10:18:00.246Z,21.66
2022-10-27T10:23:26.349Z,21.82
2022-10-27T10:26:01.138Z,21.88
2022-10-27T10:28:39.015Z,21.95
2022-10-27T10:31:16.053Z,22.04
2022-10-27T10:33:50.838Z,22.09
2022-10-27T10:36:30.977Z,22.16
2022-10-27T10:39:04.757Z,22.20
2022-10-27T10:55:27.634Z,22.54
2022-10-27T11:01:53.106Z,22.73
2022-10-27T11:04:48.002Z,22.76
2022-10-27T11:07:41.365Z,22.84
2022-10-27T11:10:39.254Z,22.90
2022-10-27T11:13:40.503Z,22.95
2022-10-27T11:16:34.063Z,23.03
2022-10-27T11:19:35.599Z,23.10
2022-10-27T11:22:29.659Z,23.17
2022-10-27T11:25:25.258Z,23.21
2022-10-27T11:28:24.638Z,23.25
2022-10-27T11:31:23.918Z,23.30
2022-10-27T11:34:26.806Z,23.35
2022-10-27T11:37:26.172Z,23.38
2022-10-27T11:40:27.472Z,23.45
2022-10-27T11:43:27.271Z,23.50
2022-10-27T11:46:22.280Z,23.54
2022-10-27T11:49:22.972Z,23.60
2022-10-27T11:52:18.637Z,23.65
2022-10-27T11:55:14.777Z,23.70
2022-10-27T11:58:13.648Z,23.75
2022-10-27T12:01:16.653Z,23.79
2022-10-27T12:04:27.201Z,23.81
2022-10-27T12:07:29.990Z,23.84
2022-10-27T12:10:35.732Z,23.84
2022-10-27T12:13:34.470Z,23.86
2022-10-27T12:16:32.114Z,23.88
2022-10-27T12:19:29.771Z,23.90
2022-10-27T12:22:29.315Z,23.90
2022-10-27T12:25:29.117Z,23.88
2022-10-27T12:28:22.587Z,23.86
2022-10-27T12:31:19.804Z,23.87
2022-10-27T12:34:15.516Z,23.87
2022-10-27T12:37:13.653Z,23.88
2022-10-27T12:40:12.957Z,23.82
2022-10-27T12:43:18.623Z,23.78
2022-10-27T12:46:25.012Z,23.67
2022-10-27T12:49:27.283Z,23.64
2022-10-27T12:52:24.585Z,23.53
2022-10-27T12:55:43.913Z,23.52
2022-10-27T12:58:48.028Z,23.55
2022-10-27T13:01:51.809Z,23.61
2022-10-27T13:05:20.019Z,23.68
2022-10-27T13:12:09.560Z,23.66
2022-10-27T13:15:26.240Z,23.65
2022-10-27T13:18:32.182Z,23.67
2022-10-27T13:21:31.852Z,23.68
2022-10-27T13:24:32.788Z,23.68
2022-10-27T13:27:30.813Z,23.70
2022-10-27T13:30:25.038Z,23.68
2022-10-27T13:33:34.025Z,23.63
2022-10-27T13:36:28.015Z,23.63
2022-10-27T13:39:45.414Z,23.61
2022-10-27T13:42:38.347Z,23.63
2022-10-27T13:45:51.285Z,23.61
2022-10-27T13:48:59.780Z,23.53
2022-10-27T13:52:12.128Z,23.50
2022-10-27T13:55:38.359Z,23.49
2022-10-27T13:58:51.404Z,23.47
2022-10-27T14:01:53.957Z,23.39
2022-10-27T14:04:51.491Z,23.28
2022-10-27T14:07:46.090Z,23.18
2022-10-27T14:10:40.434Z,23.09
2022-10-27T14:13:40.636Z,22.99
2022-10-27T14:16:35.271Z,22.90
2022-10-27T14:19:30.671Z,22.81
2022-10-27T14:22:40.707Z,22.73
2022-10-27T14:25:35.060Z,22.65
2022-10-27T14:28:27.567Z,22.58
2022-10-27T14:31:24.107Z,22.51
2022-10-27T14:34:23.362Z,22.44
2022-10-27T14:37:20.773Z,22.39
2022-10-27T14:40:21.238Z,22.30
2022-10-27T14:43:23.055Z,22.21
2022-10-27T14:46:22.506Z,22.13
2022-10-27T14:49:30.711Z,22.04
2022-10-27T14:52:30.943Z,21.93
2022-10-27T14:55:37.139Z,21.85
2022-10-27T14:58:28.884Z,21.74
2022-10-27T15:01:34.428Z,21.64
2022-10-27T15:04:29.099Z,21.51
2022-10-27T15:07:24.102Z,21.41
2022-10-27T15:10:20.357Z,21.28
2022-10-27T15:13:18.548Z,21.14
2022-10-27T15:16:16.172Z,21.00
2022-10-27T15:19:13.615Z,20.85
2022-10-27T15:22:06.267Z,20.70
2022-10-27T15:25:00.083Z,20.50
2022-10-27T15:27:51.934Z,20.36
2022-10-27T15:30:45.310Z,20.19
2022-10-27T15:33:41.536Z,20.03
2022-10-27T15:36:34.493Z,19.87
2022-10-27T15:39:28.586Z,19.72
2022-10-27T15:42:23.496Z,19.57
2022-10-27T15:45:39.774Z,19.41
2022-10-27T15:48:40.176Z,19.23
2022-10-27T15:51:47.150Z,19.06
2022-10-27T15:54:43.377Z,18.88
2022-10-27T15:57:39.024Z,18.74
2022-10-27T16:00:31.463Z,18.58
2022-10-27T16:03:34.484Z,18.44
2022-10-27T16:06:33.456Z,18.30
2022-10-27T16:09:42.771Z,18.16
2022-10-27T16:12:43.082Z,17.99
2022-10-27T16:15:37.576Z,17.85
2022-10-27T16:18:29.709Z,17.72
2022-10-27T16:21:28.528Z,17.58
2022-10-27T16:24:24.754Z,17.44
2022-10-27T16:27:20.729Z,17.31
2022-10-27T16:30:19.349Z,17.17
2022-10-27T16:33:16.354Z,17.04
2022-10-27T16:36:12.388Z,16.90
2022-10-27T16:39:05.376Z,16.78
2022-10-27T16:41:57.496Z,16.65
2022-10-27T16:44:49.485Z,16.52
2022-10-27T16:47:41.551Z,16.40
2022-10-27T16:50:33.431Z,16.28
2022-10-27T16:53:26.182Z,16.17
2022-10-27T16:56:18.919Z,16.05
2022-10-27T16:59:10.856Z,15.94
2022-10-27T17:02:03.257Z,15.82
2022-10-27T17:04:55.537Z,15.70
2022-10-27T17:07:48.573Z,15.60
2022-10-27T17:10:40.621Z,15.50
2022-10-27T17:13:33.472Z,15.40
2022-10-27T17:16:25.767Z,15.28
2022-10-27T17:19:18.767Z,15.19
2022-10-27T17:22:10.594Z,15.07
2022-10-27T17:25:01.826Z,14.96
2022-10-27T17:27:55.080Z,14.87
2022-10-27T17:30:48.161Z,14.77
2022-10-27T17:33:40.963Z,14.65
2022-10-27T17:36:33.277Z,14.57
2022-10-27T17:39:26.334Z,14.49
2022-10-27T17:42:18.395Z,14.42
2022-10-27T17:45:12.769Z,14.33
2022-10-27T17:48:05.099Z,14.25
2022-10-27T17:51:03.092Z,14.15
2022-10-27T17:53:55.621Z,14.07
2022-10-27T17:56:45.691Z,13.97
2022-10-27T17:59:38.807Z,13.88
2022-10-27T18:02:32.448Z,13.79
2022-10-27T18:05:27.354Z,13.71
2022-10-27T18:08:21.382Z,13.62
2022-10-27T18:11:16.951Z,13.55
2022-10-27T18:14:14.330Z,13.48
2022-10-27T18:17:08.130Z,13.41
2022-10-27T18:20:00.337Z,13.33
2022-10-27T18:22:53.521Z,13.25
2022-10-27T18:25:45.783Z,13.18
2022-10-27T18:28:38.958Z,13.10
2022-10-27T18:31:36.396Z,13.01
2022-10-27T18:34:29.557Z,12.97
2022-10-27T18:37:22.124Z,12.89
2022-10-27T18:40:14.498Z,12.83
2022-10-27T18:43:06.191Z,12.75
2022-10-27T18:46:02.076Z,12.66
2022-10-27T18:48:56.542Z,12.60
2022-10-27T18:51:48.424Z,12.53
2022-10-27T18:54:40.545Z,12.46
2022-10-27T18:57:32.488Z,12.40
2022-10-27T19:00:26.425Z,12.33
2022-10-27T19:03:19.847Z,12.27
2022-10-27T19:06:15.246Z,12.21
2022-10-27T19:09:07.612Z,12.15
2022-10-27T19:12:00.911Z,12.08
2022-10-27T19:14:53.136Z,12.03
2022-10-27T19:17:45.945Z,11.97
2022-10-27T19:20:37.515Z,11.91
2022-10-27T19:23:31.553Z,11.87
2022-10-27T19:26:25.807Z,11.81
2022-10-27T19:29:18.093Z,11.76
2022-10-27T19:32:10.519Z,11.74
2022-10-27T19:35:03.240Z,11.70
2022-10-27T19:37:55.608Z,11.67
2022-10-27T19:40:48.378Z,11.64
2022-10-27T19:43:42.598Z,11.61
2022-10-27T19:46:38.311Z,11.57
2022-10-27T19:49:28.922Z,11.53
2022-10-27T19:52:20.625Z,11.51
2022-10-27T19:55:13.244Z,11.47
2022-10-27T19:58:03.791Z,11.44
2022-10-27T20:00:55.839Z,11.41
2022-10-27T20:03:48.609Z,11.39
2022-10-27T20:06:46.398Z,11.37
2022-10-27T20:09:38.060Z,11.33
2022-10-27T20:12:31.044Z,11.29
2022-10-27T20:15:22.968Z,11.18
2022-10-27T20:18:14.766Z,11.07
2022-10-27T20:21:07.208Z,11.05
2022-10-27T20:24:00.442Z,10.99
2022-10-27T20:26:53.528Z,10.96
2022-10-27T20:29:45.762Z,10.94
2022-10-27T20:32:43.461Z,10.91
2022-10-27T20:35:35.980Z,10.86
2022-10-27T20:38:28.619Z,10.84
2022-10-27T20:41:22.958Z,10.83
2022-10-27T20:44:15.130Z,10.80
2022-10-27T20:47:07.384Z,10.77
2022-10-27T20:49:57.969Z,10.74
2022-10-27T20:52:49.969Z,10.68
2022-10-27T20:55:42.237Z,10.63
2022-10-27T20:58:34.477Z,10.62
2022-10-27T21:01:31.403Z,10.55
2022-10-27T21:04:23.861Z,10.52
2022-10-27T21:07:15.894Z,10.50
2022-10-27T21:10:11.370Z,10.48
2022-10-27T21:13:03.073Z,10.46
2022-10-27T21:15:59.778Z,10.45
2022-10-27T21:18:55.177Z,10.43
2022-10-27T21:21:47.258Z,10.39
2022-10-27T21:24:39.467Z,10.35
2022-10-27T21:27:31.173Z,10.33
2022-10-27T21:35:53.357Z,10.25
2022-10-27T21:38:47.196Z,10.20
2022-10-27T21:41:39.449Z,10.12
2022-10-27T21:44:31.728Z,10.05
2022-10-27T21:47:23.511Z,10.01
2022-10-27T21:50:16.324Z,9.99
2022-10-27T21:53:06.549Z,9.99
2022-10-27T21:55:59.686Z,9.98
2022-10-27T22:01:25.758Z,9.97
2022-10-27T22:04:18.546Z,9.98
2022-10-27T22:07:10.328Z,9.97
2022-10-27T22:10:02.045Z,9.96
2022-10-27T22:12:54.888Z,9.94
2022-10-27T22:15:47.535Z,9.91
2022-10-27T22:18:40.869Z,9.89
2022-10-27T22:21:36.105Z,9.86
2022-10-27T22:24:28.044Z,9.84
2022-10-27T22:27:20.276Z,9.83
2022-10-27T22:30:14.338Z,9.80
2022-10-27T22:33:06.593Z,9.77
2022-10-27T22:36:04.722Z,9.73
2022-10-27T22:38:58.283Z,9.69
2022-10-27T22:41:50.472Z,9.65
2022-10-27T22:44:42.495Z,9.63
2022-10-27T22:47:35.081Z,9.60
2022-10-27T22:50:27.590Z,9.56
2022-10-27T22:53:20.405Z,9.53
2022-10-27T22:56:13.082Z,9.50
2022-10-27T22:59:08.660Z,9.48
2022-10-27T23:02:01.732Z,9.45
2022-10-27T23:04:53.886Z,9.43
2022-10-27T23:07:45.911Z,9.39
2022-10-27T23:10:37.750Z,9.36
2022-10-27T23:13:32.954Z,9.32
2022-10-27T23:16:25.348Z,9.30
2022-10-27T23:19:18.550Z,9.29
2022-10-27T23:22:08.741Z,9.25
2022-10-27T23:25:00.975Z,9.22
2022-10-27T23:27:56.011Z,9.18
2022-10-27T23:30:48.821Z,9.15
2022-10-27T23:33:40.962Z,9.10
2022-10-27T23:36:35.389Z,9.06
2022-10-27T23:39:27.778Z,9.03
2022-10-27T23:42:18.283Z,8.99
2022-10-27T23:45:12.039Z,8.93
2022-10-27T23:48:03.985Z,8.90
2022-10-27T23:50:55.605Z,8.87
2022-10-27T23:53:49.834Z,8.85
2022-10-27T23:56:43.563Z,8.83
2022-10-27T23:59:36.208Z,8.80
